sensor_id;sensor_type;location;lat;lon;timestamp;temperature;humidity
12015;DHT22;6066;48.138;16.402;2023-01-04T00:01:59;3.50;99.90
12015;DHT22;6066;48.138;16.402;2023-01-04T00:04:26;3.50;99.90
12015;DHT22;6066;48.138;16.402;2023-01-04T00:06:54;3.40;99.90
12015;DHT22;6066;48.138;16.402;2023-01-04T00:09:21;3.40;99.90
12015;DHT22;6066;48.138;16.402;2023-01-04T00:11:47;3.40;99.90
12015;DHT22;6066;48.138;16.402;2023-01-04T00:14:14;3.30;99.90
12015;DHT22;6066;48.138;16.402;2023-01-04T00:16:41;3.20;99.90
12015;DHT22;6066;48.138;16.402;2023-01-04T00:19:09;3.20;99.90
12015;DHT22;6066;48.138;16.402;2023-01-04T00:21:36;3.10;99.90
12015;DHT22;6066;48.138;16.402;2023-01-04T00:24:04;3.10;99.90
12015;DHT22;6066;48.138;16.402;2023-01-04T00:26:32;3.10;99.90
12015;DHT22;6066;48.138;16.402;2023-01-04T00:29:00;3.10;99.90
12015;DHT22;6066;48.138;16.402;2023-01-04T00:31:27;3.00;99.90
12015;DHT22;6066;48.138;16.402;2023-01-04T00:33:54;3.00;99.90
12015;DHT22;6066;48.138;16.402;2023-01-04T00:36:21;3.00;99.90
12015;DHT22;6066;48.138;16.402;2023-01-04T00:38:47;3.00;99.90
12015;DHT22;6066;48.138;16.402;2023-01-04T00:41:33;3.00;99.90
12015;DHT22;6066;48.138;16.402;2023-01-04T00:43:59;3.00;99.90
12015;DHT22;6066;48.138;16.402;2023-01-04T00:46:28;3.00;99.90
12015;DHT22;6066;48.138;16.402;2023-01-04T00:48:56;3.10;99.90
12015;DHT22;6066;48.138;16.402;2023-01-04T00:51:23;3.10;99.90
12015;DHT22;6066;48.138;16.402;2023-01-04T00:53:49;3.10;99.90
12015;DHT22;6066;48.138;16.402;2023-01-04T00:56:17;3.00;99.90
12015;DHT22;6066;48.138;16.402;2023-01-04T00:58:45;3.00;99.90
12015;DHT22;6066;48.138;16.402;2023-01-04T01:01:11;3.10;99.90
12015;DHT22;6066;48.138;16.402;2023-01-04T01:03:38;3.20;99.90
12015;DHT22;6066;48.138;16.402;2023-01-04T01:06:05;3.20;99.90
12015;DHT22;6066;48.138;16.402;2023-01-04T01:08:32;3.20;99.90
12015;DHT22;6066;48.138;16.402;2023-01-04T01:11:01;3.30;99.90
12015;DHT22;6066;48.138;16.402;2023-01-04T01:13:28;3.20;99.90
12015;DHT22;6066;48.138;16.402;2023-01-04T01:15:58;3.20;99.90
12015;DHT22;6066;48.138;16.402;2023-01-04T01:18:27;3.20;99.90
12015;DHT22;6066;48.138;16.402;2023-01-04T01:20:54;3.10;99.90
12015;DHT22;6066;48.138;16.402;2023-01-04T01:23:20;3.10;99.90
12015;DHT22;6066;48.138;16.402;2023-01-04T01:25:47;3.00;99.90
12015;DHT22;6066;48.138;16.402;2023-01-04T01:28:14;3.00;99.90
12015;DHT22;6066;48.138;16.402;2023-01-04T01:30:41;2.90;99.90
12015;DHT22;6066;48.138;16.402;2023-01-04T01:33:09;2.80;99.90
12015;DHT22;6066;48.138;16.402;2023-01-04T01:35:36;2.90;99.90
12015;DHT22;6066;48.138;16.402;2023-01-04T01:38:03;3.00;99.90
12015;DHT22;6066;48.138;16.402;2023-01-04T01:40:29;3.00;99.90
12015;DHT22;6066;48.138;16.402;2023-01-04T01:42:56;2.90;99.90
12015;DHT22;6066;48.138;16.402;2023-01-04T01:45:27;2.90;99.90
12015;DHT22;6066;48.138;16.402;2023-01-04T01:47:55;2.90;99.90
12015;DHT22;6066;48.138;16.402;2023-01-04T01:50:25;2.80;99.90
12015;DHT22;6066;48.138;16.402;2023-01-04T01:52:53;2.70;99.90
12015;DHT22;6066;48.138;16.402;2023-01-04T01:55:21;2.70;99.90
12015;DHT22;6066;48.138;16.402;2023-01-04T01:57:48;2.60;99.90
12015;DHT22;6066;48.138;16.402;2023-01-04T02:00:16;2.60;99.90
12015;DHT22;6066;48.138;16.402;2023-01-04T02:02:44;2.50;99.90
12015;DHT22;6066;48.138;16.402;2023-01-04T02:05:12;2.50;99.90
12015;DHT22;6066;48.138;16.402;2023-01-04T02:07:40;2.40;99.90
12015;DHT22;6066;48.138;16.402;2023-01-04T02:10:07;2.40;99.90
12015;DHT22;6066;48.138;16.402;2023-01-04T02:12:34;2.30;99.90
12015;DHT22;6066;48.138;16.402;2023-01-04T02:15:01;2.30;99.90
12015;DHT22;6066;48.138;16.402;2023-01-04T02:17:32;2.30;99.90
12015;DHT22;6066;48.138;16.402;2023-01-04T02:20:13;2.30;99.90
12015;DHT22;6066;48.138;16.402;2023-01-04T02:23:00;2.20;99.90
12015;DHT22;6066;48.138;16.402;2023-01-04T02:25:39;2.20;99.90
12015;DHT22;6066;48.138;16.402;2023-01-04T02:28:08;2.10;99.90
12015;DHT22;6066;48.138;16.402;2023-01-04T02:33:32;2.10;99.90
12015;DHT22;6066;48.138;16.402;2023-01-04T02:36:06;2.10;99.90
12015;DHT22;6066;48.138;16.402;2023-01-04T02:38:39;2.10;99.90
12015;DHT22;6066;48.138;16.402;2023-01-04T02:41:11;2.00;99.90
12015;DHT22;6066;48.138;16.402;2023-01-04T02:43:41;2.00;99.90
12015;DHT22;6066;48.138;16.402;2023-01-04T02:46:28;2.00;99.90
12015;DHT22;6066;48.138;16.402;2023-01-04T02:48:59;1.90;99.90
12015;DHT22;6066;48.138;16.402;2023-01-04T02:51:43;1.90;99.90
12015;DHT22;6066;48.138;16.402;2023-01-04T02:54:10;1.90;99.90
12015;DHT22;6066;48.138;16.402;2023-01-04T02:56:44;1.80;99.90
12015;DHT22;6066;48.138;16.402;2023-01-04T02:59:17;1.70;99.90
12015;DHT22;6066;48.138;16.402;2023-01-04T03:01:49;1.70;99.90
12015;DHT22;6066;48.138;16.402;2023-01-04T03:04:39;1.60;99.90
12015;DHT22;6066;48.138;16.402;2023-01-04T03:07:26;1.60;99.90
12015;DHT22;6066;48.138;16.402;2023-01-04T03:09:56;1.50;99.90
12015;DHT22;6066;48.138;16.402;2023-01-04T03:12:26;1.50;99.90
12015;DHT22;6066;48.138;16.402;2023-01-04T03:14:58;1.50;99.90
12015;DHT22;6066;48.138;16.402;2023-01-04T03:17:28;1.50;99.90
12015;DHT22;6066;48.138;16.402;2023-01-04T03:19:58;1.50;99.90
12015;DHT22;6066;48.138;16.402;2023-01-04T03:22:28;1.40;99.90
12015;DHT22;6066;48.138;16.402;2023-01-04T03:25:13;1.40;99.90
12015;DHT22;6066;48.138;16.402;2023-01-04T03:27:58;1.30;99.90
12015;DHT22;6066;48.138;16.402;2023-01-04T03:30:45;1.30;99.90
12015;DHT22;6066;48.138;16.402;2023-01-04T03:33:30;1.30;99.90
12015;DHT22;6066;48.138;16.402;2023-01-04T03:36:19;1.30;99.90
12015;DHT22;6066;48.138;16.402;2023-01-04T03:38:51;1.20;99.90
12015;DHT22;6066;48.138;16.402;2023-01-04T03:41:41;1.20;99.90
12015;DHT22;6066;48.138;16.402;2023-01-04T03:44:29;1.20;99.90
12015;DHT22;6066;48.138;16.402;2023-01-04T03:47:16;1.20;99.90
12015;DHT22;6066;48.138;16.402;2023-01-04T03:50:01;1.20;99.90
12015;DHT22;6066;48.138;16.402;2023-01-04T03:52:32;1.20;99.90
12015;DHT22;6066;48.138;16.402;2023-01-04T03:55:00;1.20;99.90
12015;DHT22;6066;48.138;16.402;2023-01-04T03:57:27;1.20;99.90
12015;DHT22;6066;48.138;16.402;2023-01-04T03:59:56;1.20;99.90
12015;DHT22;6066;48.138;16.402;2023-01-04T04:02:28;1.20;99.90
12015;DHT22;6066;48.138;16.402;2023-01-04T04:04:55;1.20;99.90
12015;DHT22;6066;48.138;16.402;2023-01-04T04:07:40;1.20;99.90
12015;DHT22;6066;48.138;16.402;2023-01-04T04:10:24;1.10;99.90
12015;DHT22;6066;48.138;16.402;2023-01-04T04:12:51;1.10;99.90
12015;DHT22;6066;48.138;16.402;2023-01-04T04:15:18;1.10;99.90
12015;DHT22;6066;48.138;16.402;2023-01-04T04:17:44;1.00;99.90
12015;DHT22;6066;48.138;16.402;2023-01-04T04:20:12;1.00;99.90
12015;DHT22;6066;48.138;16.402;2023-01-04T04:22:42;0.90;99.90
12015;DHT22;6066;48.138;16.402;2023-01-04T04:25:08;0.90;99.90
12015;DHT22;6066;48.138;16.402;2023-01-04T04:27:35;1.00;99.90
12015;DHT22;6066;48.138;16.402;2023-01-04T04:30:02;1.00;99.90
12015;DHT22;6066;48.138;16.402;2023-01-04T04:32:29;0.90;99.90
12015;DHT22;6066;48.138;16.402;2023-01-04T04:34:55;0.90;99.90
12015;DHT22;6066;48.138;16.402;2023-01-04T04:37:22;0.80;99.90
12015;DHT22;6066;48.138;16.402;2023-01-04T04:39:52;0.80;99.90
12015;DHT22;6066;48.138;16.402;2023-01-04T04:42:19;0.80;99.90
12015;DHT22;6066;48.138;16.402;2023-01-04T04:44:45;0.70;99.90
12015;DHT22;6066;48.138;16.402;2023-01-04T04:47:11;0.70;99.90
12015;DHT22;6066;48.138;16.402;2023-01-04T04:49:38;0.70;99.90
12015;DHT22;6066;48.138;16.402;2023-01-04T04:52:05;0.70;99.90
12015;DHT22;6066;48.138;16.402;2023-01-04T04:54:31;0.70;99.90
12015;DHT22;6066;48.138;16.402;2023-01-04T04:56:59;0.60;99.90
12015;DHT22;6066;48.138;16.402;2023-01-04T04:59:26;0.60;99.90
12015;DHT22;6066;48.138;16.402;2023-01-04T05:01:53;0.60;99.90
12015;DHT22;6066;48.138;16.402;2023-01-04T05:04:19;0.60;99.90
12015;DHT22;6066;48.138;16.402;2023-01-04T05:06:46;0.60;99.90
12015;DHT22;6066;48.138;16.402;2023-01-04T05:09:14;0.50;99.90
12015;DHT22;6066;48.138;16.402;2023-01-04T05:11:41;0.50;99.90
12015;DHT22;6066;48.138;16.402;2023-01-04T05:14:26;0.60;99.90
12015;DHT22;6066;48.138;16.402;2023-01-04T05:16:53;0.60;99.90
12015;DHT22;6066;48.138;16.402;2023-01-04T05:19:20;0.70;99.90
12015;DHT22;6066;48.138;16.402;2023-01-04T05:21:47;0.80;99.90
12015;DHT22;6066;48.138;16.402;2023-01-04T05:24:13;0.80;99.90
12015;DHT22;6066;48.138;16.402;2023-01-04T05:26:40;0.70;99.90
12015;DHT22;6066;48.138;16.402;2023-01-04T05:29:07;0.70;99.90
12015;DHT22;6066;48.138;16.402;2023-01-04T05:31:55;0.80;99.90
12015;DHT22;6066;48.138;16.402;2023-01-04T05:34:20;0.80;99.90
12015;DHT22;6066;48.138;16.402;2023-01-04T05:36:47;0.80;99.90
12015;DHT22;6066;48.138;16.402;2023-01-04T05:39:14;0.80;99.90
12015;DHT22;6066;48.138;16.402;2023-01-04T05:41:40;0.80;99.90
12015;DHT22;6066;48.138;16.402;2023-01-04T05:44:24;0.70;99.90
12015;DHT22;6066;48.138;16.402;2023-01-04T05:46:51;0.70;99.90
12015;DHT22;6066;48.138;16.402;2023-01-04T05:49:19;0.70;99.90
12015;DHT22;6066;48.138;16.402;2023-01-04T05:51:46;0.60;99.90
12015;DHT22;6066;48.138;16.402;2023-01-04T05:54:12;0.50;99.90
12015;DHT22;6066;48.138;16.402;2023-01-04T05:56:39;0.50;99.90
12015;DHT22;6066;48.138;16.402;2023-01-04T05:59:06;0.40;99.90
12015;DHT22;6066;48.138;16.402;2023-01-04T06:01:32;0.40;99.90
12015;DHT22;6066;48.138;16.402;2023-01-04T06:03:59;0.40;99.90
12015;DHT22;6066;48.138;16.402;2023-01-04T06:06:27;0.30;99.90
12015;DHT22;6066;48.138;16.402;2023-01-04T06:08:54;0.30;99.90
12015;DHT22;6066;48.138;16.402;2023-01-04T06:11:20;0.30;99.90
12015;DHT22;6066;48.138;16.402;2023-01-04T06:13:47;0.20;99.90
12015;DHT22;6066;48.138;16.402;2023-01-04T06:16:14;0.20;99.90
12015;DHT22;6066;48.138;16.402;2023-01-04T06:18:40;0.20;99.90
12015;DHT22;6066;48.138;16.402;2023-01-04T06:21:07;0.20;99.90
12015;DHT22;6066;48.138;16.402;2023-01-04T06:23:35;0.20;99.90
12015;DHT22;6066;48.138;16.402;2023-01-04T06:26:02;0.30;99.90
12015;DHT22;6066;48.138;16.402;2023-01-04T06:28:28;0.40;99.90
12015;DHT22;6066;48.138;16.402;2023-01-04T06:30:55;0.40;99.90
12015;DHT22;6066;48.138;16.402;2023-01-04T06:33:22;0.40;99.90
12015;DHT22;6066;48.138;16.402;2023-01-04T06:35:52;0.40;99.90
12015;DHT22;6066;48.138;16.402;2023-01-04T06:38:19;0.40;99.90
12015;DHT22;6066;48.138;16.402;2023-01-04T06:40:47;0.30;99.90
12015;DHT22;6066;48.138;16.402;2023-01-04T06:43:13;0.30;99.90
12015;DHT22;6066;48.138;16.402;2023-01-04T06:45:40;0.40;99.90
12015;DHT22;6066;48.138;16.402;2023-01-04T06:48:07;0.40;99.90
12015;DHT22;6066;48.138;16.402;2023-01-04T06:50:34;0.40;99.90
12015;DHT22;6066;48.138;16.402;2023-01-04T06:53:01;0.40;99.90
12015;DHT22;6066;48.138;16.402;2023-01-04T06:55:27;0.40;99.90
12015;DHT22;6066;48.138;16.402;2023-01-04T06:57:56;0.40;99.90
12015;DHT22;6066;48.138;16.402;2023-01-04T07:00:23;0.40;99.90
12015;DHT22;6066;48.138;16.402;2023-01-04T07:02:49;0.40;99.90
12015;DHT22;6066;48.138;16.402;2023-01-04T07:05:16;0.40;99.90
12015;DHT22;6066;48.138;16.402;2023-01-04T07:07:43;0.40;99.90
12015;DHT22;6066;48.138;16.402;2023-01-04T07:10:10;0.40;99.90
12015;DHT22;6066;48.138;16.402;2023-01-04T07:12:36;0.40;99.90
12015;DHT22;6066;48.138;16.402;2023-01-04T07:15:05;0.40;99.90
12015;DHT22;6066;48.138;16.402;2023-01-04T07:17:32;0.30;99.90
12015;DHT22;6066;48.138;16.402;2023-01-04T07:19:59;0.40;99.90
12015;DHT22;6066;48.138;16.402;2023-01-04T07:22:25;0.40;99.90
12015;DHT22;6066;48.138;16.402;2023-01-04T07:24:52;0.50;99.90
12015;DHT22;6066;48.138;16.402;2023-01-04T07:27:19;0.50;99.90
12015;DHT22;6066;48.138;16.402;2023-01-04T07:29:45;0.50;99.90
12015;DHT22;6066;48.138;16.402;2023-01-04T07:32:14;0.50;99.90
12015;DHT22;6066;48.138;16.402;2023-01-04T07:34:41;0.60;99.90
12015;DHT22;6066;48.138;16.402;2023-01-04T07:37:08;0.60;99.90
12015;DHT22;6066;48.138;16.402;2023-01-04T07:39:34;0.70;99.90
12015;DHT22;6066;48.138;16.402;2023-01-04T07:42:01;0.70;99.90
12015;DHT22;6066;48.138;16.402;2023-01-04T07:44:28;0.80;99.90
12015;DHT22;6066;48.138;16.402;2023-01-04T07:46:55;0.80;99.90
12015;DHT22;6066;48.138;16.402;2023-01-04T07:49:23;0.90;99.90
12015;DHT22;6066;48.138;16.402;2023-01-04T07:51:50;1.00;99.90
12015;DHT22;6066;48.138;16.402;2023-01-04T07:54:17;1.10;99.90
12015;DHT22;6066;48.138;16.402;2023-01-04T07:56:44;1.10;99.90
12015;DHT22;6066;48.138;16.402;2023-01-04T07:59:12;1.20;99.90
12015;DHT22;6066;48.138;16.402;2023-01-04T08:01:39;1.20;99.90
12015;DHT22;6066;48.138;16.402;2023-01-04T08:04:06;1.20;99.90
12015;DHT22;6066;48.138;16.402;2023-01-04T08:06:34;1.20;99.90
12015;DHT22;6066;48.138;16.402;2023-01-04T08:09:02;1.20;99.90
12015;DHT22;6066;48.138;16.402;2023-01-04T08:11:29;1.20;99.90
12015;DHT22;6066;48.138;16.402;2023-01-04T08:13:56;1.30;99.90
12015;DHT22;6066;48.138;16.402;2023-01-04T08:16:23;1.40;99.90
12015;DHT22;6066;48.138;16.402;2023-01-04T08:18:52;1.50;99.90
12015;DHT22;6066;48.138;16.402;2023-01-04T08:21:18;1.60;99.90
12015;DHT22;6066;48.138;16.402;2023-01-04T08:23:47;1.70;99.90
12015;DHT22;6066;48.138;16.402;2023-01-04T08:26:14;1.80;99.90
12015;DHT22;6066;48.138;16.402;2023-01-04T08:28:41;1.80;99.90
12015;DHT22;6066;48.138;16.402;2023-01-04T08:31:09;1.90;99.90
12015;DHT22;6066;48.138;16.402;2023-01-04T08:33:36;1.90;99.90
12015;DHT22;6066;48.138;16.402;2023-01-04T08:36:07;2.00;99.90
12015;DHT22;6066;48.138;16.402;2023-01-04T08:38:34;2.10;99.90
12015;DHT22;6066;48.138;16.402;2023-01-04T08:41:02;2.20;99.90
12015;DHT22;6066;48.138;16.402;2023-01-04T08:43:29;2.20;99.90
12015;DHT22;6066;48.138;16.402;2023-01-04T08:45:55;2.30;99.90
12015;DHT22;6066;48.138;16.402;2023-01-04T08:48:22;2.30;99.90
12015;DHT22;6066;48.138;16.402;2023-01-04T08:50:49;2.40;99.90
12015;DHT22;6066;48.138;16.402;2023-01-04T08:53:15;2.40;99.90
12015;DHT22;6066;48.138;16.402;2023-01-04T08:55:47;2.50;99.90
12015;DHT22;6066;48.138;16.402;2023-01-04T08:58:15;2.50;99.90
12015;DHT22;6066;48.138;16.402;2023-01-04T09:00:42;2.60;99.90
12015;DHT22;6066;48.138;16.402;2023-01-04T09:03:08;2.60;99.90
12015;DHT22;6066;48.138;16.402;2023-01-04T09:05:35;2.70;99.90
12015;DHT22;6066;48.138;16.402;2023-01-04T09:08:02;2.70;99.90
12015;DHT22;6066;48.138;16.402;2023-01-04T09:10:28;2.80;99.90
12015;DHT22;6066;48.138;16.402;2023-01-04T09:12:55;2.80;99.90
12015;DHT22;6066;48.138;16.402;2023-01-04T09:15:23;2.90;99.90
12015;DHT22;6066;48.138;16.402;2023-01-04T09:17:50;3.00;99.90
12015;DHT22;6066;48.138;16.402;2023-01-04T09:20:17;3.00;99.90
12015;DHT22;6066;48.138;16.402;2023-01-04T09:22:43;3.00;99.90
12015;DHT22;6066;48.138;16.402;2023-01-04T09:25:10;3.10;99.90
12015;DHT22;6066;48.138;16.402;2023-01-04T09:27:37;3.20;99.90
12015;DHT22;6066;48.138;16.402;2023-01-04T09:30:04;3.20;99.90
12015;DHT22;6066;48.138;16.402;2023-01-04T09:32:33;3.30;99.90
12015;DHT22;6066;48.138;16.402;2023-01-04T09:34:59;3.30;99.90
12015;DHT22;6066;48.138;16.402;2023-01-04T09:37:26;3.50;99.90
12015;DHT22;6066;48.138;16.402;2023-01-04T09:39:53;3.50;99.90
12015;DHT22;6066;48.138;16.402;2023-01-04T09:42:20;3.70;99.90
12015;DHT22;6066;48.138;16.402;2023-01-04T09:44:49;3.70;99.90
12015;DHT22;6066;48.138;16.402;2023-01-04T09:47:17;3.80;99.90
12015;DHT22;6066;48.138;16.402;2023-01-04T09:49:46;3.90;99.90
12015;DHT22;6066;48.138;16.402;2023-01-04T09:52:16;4.10;99.90
12015;DHT22;6066;48.138;16.402;2023-01-04T09:54:46;4.20;99.90
12015;DHT22;6066;48.138;16.402;2023-01-04T09:57:16;4.40;99.90
12015;DHT22;6066;48.138;16.402;2023-01-04T09:59:45;4.60;99.90
12015;DHT22;6066;48.138;16.402;2023-01-04T10:02:14;4.70;99.90
12015;DHT22;6066;48.138;16.402;2023-01-04T10:04:46;4.80;99.90
12015;DHT22;6066;48.138;16.402;2023-01-04T10:07:17;4.90;99.90
12015;DHT22;6066;48.138;16.402;2023-01-04T10:09:46;5.10;99.90
12015;DHT22;6066;48.138;16.402;2023-01-04T10:12:20;5.20;99.90
12015;DHT22;6066;48.138;16.402;2023-01-04T10:14:54;5.30;99.90
12015;DHT22;6066;48.138;16.402;2023-01-04T10:17:29;5.50;99.90
12015;DHT22;6066;48.138;16.402;2023-01-04T10:20:12;5.60;99.90
12015;DHT22;6066;48.138;16.402;2023-01-04T10:22:44;5.80;99.90
12015;DHT22;6066;48.138;16.402;2023-01-04T10:25:21;5.90;99.90
12015;DHT22;6066;48.138;16.402;2023-01-04T10:27:52;6.10;99.90
12015;DHT22;6066;48.138;16.402;2023-01-04T10:30:24;6.20;99.90
12015;DHT22;6066;48.138;16.402;2023-01-04T10:32:55;6.30;99.90
12015;DHT22;6066;48.138;16.402;2023-01-04T10:35:26;6.50;99.90
12015;DHT22;6066;48.138;16.402;2023-01-04T10:37:56;6.60;99.90
12015;DHT22;6066;48.138;16.402;2023-01-04T10:40:23;6.70;99.90
12015;DHT22;6066;48.138;16.402;2023-01-04T10:42:54;6.80;99.90
12015;DHT22;6066;48.138;16.402;2023-01-04T10:45:24;6.90;99.90
12015;DHT22;6066;48.138;16.402;2023-01-04T10:47:58;7.00;99.90
12015;DHT22;6066;48.138;16.402;2023-01-04T10:50:32;7.10;99.90
12015;DHT22;6066;48.138;16.402;2023-01-04T10:53:02;7.10;99.90
12015;DHT22;6066;48.138;16.402;2023-01-04T10:55:31;7.20;99.90
12015;DHT22;6066;48.138;16.402;2023-01-04T10:58:01;7.30;99.90
12015;DHT22;6066;48.138;16.402;2023-01-04T11:00:31;7.30;99.90
12015;DHT22;6066;48.138;16.402;2023-01-04T11:03:00;7.30;99.90
12015;DHT22;6066;48.138;16.402;2023-01-04T11:05:31;7.40;99.90
12015;DHT22;6066;48.138;16.402;2023-01-04T11:08:02;7.40;99.90
12015;DHT22;6066;48.138;16.402;2023-01-04T11:10:33;7.50;99.90
12015;DHT22;6066;48.138;16.402;2023-01-04T11:13:01;7.50;99.90
12015;DHT22;6066;48.138;16.402;2023-01-04T11:15:28;7.50;99.90
12015;DHT22;6066;48.138;16.402;2023-01-04T11:17:55;7.60;99.90
12015;DHT22;6066;48.138;16.402;2023-01-04T11:20:22;7.70;99.90
12015;DHT22;6066;48.138;16.402;2023-01-04T11:22:51;7.70;99.90
12015;DHT22;6066;48.138;16.402;2023-01-04T11:25:22;7.80;99.90
12015;DHT22;6066;48.138;16.402;2023-01-04T11:27:50;7.80;99.90
12015;DHT22;6066;48.138;16.402;2023-01-04T11:30:19;7.80;99.90
12015;DHT22;6066;48.138;16.402;2023-01-04T11:32:49;7.80;99.90
12015;DHT22;6066;48.138;16.402;2023-01-04T11:35:28;7.90;99.90
12015;DHT22;6066;48.138;16.402;2023-01-04T11:38:09;8.00;99.90
12015;DHT22;6066;48.138;16.402;2023-01-04T11:40:36;8.00;99.90
12015;DHT22;6066;48.138;16.402;2023-01-04T11:43:10;8.10;99.90
12015;DHT22;6066;48.138;16.402;2023-01-04T11:45:37;8.20;99.90
12015;DHT22;6066;48.138;16.402;2023-01-04T11:48:04;8.30;99.90
12015;DHT22;6066;48.138;16.402;2023-01-04T11:50:35;8.20;99.90
12015;DHT22;6066;48.138;16.402;2023-01-04T11:53:08;8.20;99.90
12015;DHT22;6066;48.138;16.402;2023-01-04T11:55:46;8.20;99.90
12015;DHT22;6066;48.138;16.402;2023-01-04T11:58:14;8.20;99.90
12015;DHT22;6066;48.138;16.402;2023-01-04T12:00:48;8.20;99.90
12015;DHT22;6066;48.138;16.402;2023-01-04T12:03:16;8.20;99.90
12015;DHT22;6066;48.138;16.402;2023-01-04T12:05:44;8.20;99.90
12015;DHT22;6066;48.138;16.402;2023-01-04T12:08:17;8.30;99.90
12015;DHT22;6066;48.138;16.402;2023-01-04T12:10:47;8.30;99.90
12015;DHT22;6066;48.138;16.402;2023-01-04T12:13:14;8.30;99.90
12015;DHT22;6066;48.138;16.402;2023-01-04T12:15:44;8.40;99.90
12015;DHT22;6066;48.138;16.402;2023-01-04T12:18:15;8.40;99.90
12015;DHT22;6066;48.138;16.402;2023-01-04T12:20:44;8.50;99.90
12015;DHT22;6066;48.138;16.402;2023-01-04T12:23:11;8.60;99.90
12015;DHT22;6066;48.138;16.402;2023-01-04T12:25:40;8.70;99.90
12015;DHT22;6066;48.138;16.402;2023-01-04T12:30:52;8.80;99.90
12015;DHT22;6066;48.138;16.402;2023-01-04T12:33:37;8.90;99.90
12015;DHT22;6066;48.138;16.402;2023-01-04T12:36:05;9.00;99.90
12015;DHT22;6066;48.138;16.402;2023-01-04T12:41:19;9.10;99.90
12015;DHT22;6066;48.138;16.402;2023-01-04T12:43:46;9.10;99.90
12015;DHT22;6066;48.138;16.402;2023-01-04T12:46:36;9.10;99.90
12015;DHT22;6066;48.138;16.402;2023-01-04T12:54:54;9.30;99.90
12015;DHT22;6066;48.138;16.402;2023-01-04T12:57:23;9.20;99.90
12015;DHT22;6066;48.138;16.402;2023-01-04T12:59:54;9.30;99.90
12015;DHT22;6066;48.138;16.402;2023-01-04T13:02:21;9.40;99.90
12015;DHT22;6066;48.138;16.402;2023-01-04T13:04:48;9.50;99.90
12015;DHT22;6066;48.138;16.402;2023-01-04T13:07:17;9.50;99.90
12015;DHT22;6066;48.138;16.402;2023-01-04T13:09:49;9.40;99.90
12015;DHT22;6066;48.138;16.402;2023-01-04T13:12:26;9.40;99.90
12015;DHT22;6066;48.138;16.402;2023-01-04T13:15:00;9.20;99.90
12015;DHT22;6066;48.138;16.402;2023-01-04T13:17:28;9.20;99.90
12015;DHT22;6066;48.138;16.402;2023-01-04T13:19:56;9.10;99.90
12015;DHT22;6066;48.138;16.402;2023-01-04T13:22:24;9.10;99.90
12015;DHT22;6066;48.138;16.402;2023-01-04T13:24:51;9.00;99.90
12015;DHT22;6066;48.138;16.402;2023-01-04T13:27:21;8.90;99.90
12015;DHT22;6066;48.138;16.402;2023-01-04T13:29:49;8.90;99.90
12015;DHT22;6066;48.138;16.402;2023-01-04T13:32:23;8.90;99.90
12015;DHT22;6066;48.138;16.402;2023-01-04T13:34:50;9.00;99.90
12015;DHT22;6066;48.138;16.402;2023-01-04T13:37:23;9.10;99.90
12015;DHT22;6066;48.138;16.402;2023-01-04T13:39:57;9.10;99.90
12015;DHT22;6066;48.138;16.402;2023-01-04T13:42:25;9.10;99.90
12015;DHT22;6066;48.138;16.402;2023-01-04T13:44:57;9.20;99.90
12015;DHT22;6066;48.138;16.402;2023-01-04T13:47:27;9.20;99.90
12015;DHT22;6066;48.138;16.402;2023-01-04T13:49:54;9.20;99.90
12015;DHT22;6066;48.138;16.402;2023-01-04T13:52:22;9.10;99.90
12015;DHT22;6066;48.138;16.402;2023-01-04T13:54:49;9.00;99.90
12015;DHT22;6066;48.138;16.402;2023-01-04T13:57:15;8.90;99.90
12015;DHT22;6066;48.138;16.402;2023-01-04T13:59:45;8.80;99.90
12015;DHT22;6066;48.138;16.402;2023-01-04T14:02:16;8.70;99.90
12015;DHT22;6066;48.138;16.402;2023-01-04T14:04:43;8.60;99.90
12015;DHT22;6066;48.138;16.402;2023-01-04T14:07:10;8.50;99.90
12015;DHT22;6066;48.138;16.402;2023-01-04T14:09:41;8.40;99.90
12015;DHT22;6066;48.138;16.402;2023-01-04T14:12:11;8.30;99.90
12015;DHT22;6066;48.138;16.402;2023-01-04T14:14:44;8.10;99.90
12015;DHT22;6066;48.138;16.402;2023-01-04T14:17:17;8.00;99.90
12015;DHT22;6066;48.138;16.402;2023-01-04T14:19:45;7.90;99.90
12015;DHT22;6066;48.138;16.402;2023-01-04T14:25:00;7.70;99.90
12015;DHT22;6066;48.138;16.402;2023-01-04T14:27:30;7.60;99.90
12015;DHT22;6066;48.138;16.402;2023-01-04T14:29:57;7.50;99.90
12015;DHT22;6066;48.138;16.402;2023-01-04T14:32:25;7.40;99.90
12015;DHT22;6066;48.138;16.402;2023-01-04T14:34:52;7.30;99.90
12015;DHT22;6066;48.138;16.402;2023-01-04T14:37:19;7.30;99.90
12015;DHT22;6066;48.138;16.402;2023-01-04T14:39:46;7.20;99.90
12015;DHT22;6066;48.138;16.402;2023-01-04T14:42:22;7.10;99.90
12015;DHT22;6066;48.138;16.402;2023-01-04T14:44:49;7.00;99.90
12015;DHT22;6066;48.138;16.402;2023-01-04T14:47:16;6.90;99.90
12015;DHT22;6066;48.138;16.402;2023-01-04T14:49:44;6.90;99.90
12015;DHT22;6066;48.138;16.402;2023-01-04T14:52:16;6.80;99.90
12015;DHT22;6066;48.138;16.402;2023-01-04T14:54:44;6.80;99.90
12015;DHT22;6066;48.138;16.402;2023-01-04T14:57:10;6.70;99.90
12015;DHT22;6066;48.138;16.402;2023-01-04T14:59:39;6.70;99.90
12015;DHT22;6066;48.138;16.402;2023-01-04T15:02:07;6.70;99.90
12015;DHT22;6066;48.138;16.402;2023-01-04T15:04:34;6.70;99.90
12015;DHT22;6066;48.138;16.402;2023-01-04T15:07:02;6.70;99.90
12015;DHT22;6066;48.138;16.402;2023-01-04T15:09:29;6.70;99.90
12015;DHT22;6066;48.138;16.402;2023-01-04T15:11:56;6.70;99.90
12015;DHT22;6066;48.138;16.402;2023-01-04T15:14:22;6.70;99.90
12015;DHT22;6066;48.138;16.402;2023-01-04T15:16:49;6.70;99.90
12015;DHT22;6066;48.138;16.402;2023-01-04T15:19:16;6.70;99.90
12015;DHT22;6066;48.138;16.402;2023-01-04T15:21:42;6.80;99.90
12015;DHT22;6066;48.138;16.402;2023-01-04T15:24:11;6.80;99.90
12015;DHT22;6066;48.138;16.402;2023-01-04T15:26:37;6.80;99.90
12015;DHT22;6066;48.138;16.402;2023-01-04T15:29:04;6.80;99.90
12015;DHT22;6066;48.138;16.402;2023-01-04T15:31:32;6.80;99.90
12015;DHT22;6066;48.138;16.402;2023-01-04T15:34:01;6.80;99.90
12015;DHT22;6066;48.138;16.402;2023-01-04T15:36:28;6.80;99.90
12015;DHT22;6066;48.138;16.402;2023-01-04T15:38:55;6.90;99.90
12015;DHT22;6066;48.138;16.402;2023-01-04T15:41:23;6.90;99.90
12015;DHT22;6066;48.138;16.402;2023-01-04T15:44:07;7.00;99.90
12015;DHT22;6066;48.138;16.402;2023-01-04T15:46:35;7.00;99.90
12015;DHT22;6066;48.138;16.402;2023-01-04T15:49:02;7.10;99.90
12015;DHT22;6066;48.138;16.402;2023-01-04T15:51:29;7.20;99.90
12015;DHT22;6066;48.138;16.402;2023-01-04T15:53:55;7.20;99.90
12015;DHT22;6066;48.138;16.402;2023-01-04T15:56:23;7.20;99.90
12015;DHT22;6066;48.138;16.402;2023-01-04T15:58:50;7.20;99.90
12015;DHT22;6066;48.138;16.402;2023-01-04T16:01:17;7.20;99.90
12015;DHT22;6066;48.138;16.402;2023-01-04T16:03:44;7.20;99.90
12015;DHT22;6066;48.138;16.402;2023-01-04T16:06:11;7.10;99.90
12015;DHT22;6066;48.138;16.402;2023-01-04T16:08:39;7.10;99.90
12015;DHT22;6066;48.138;16.402;2023-01-04T16:11:09;7.00;99.90
12015;DHT22;6066;48.138;16.402;2023-01-04T16:13:37;7.00;99.90
12015;DHT22;6066;48.138;16.402;2023-01-04T16:16:04;7.00;99.90